createdAt,value
2023-01-13T00:01:20.295Z,100423.69
2023-01-13T00:03:47.586Z,100433.94
2023-01-13T00:06:20.338Z,100448.34
2023-01-13T00:08:51.352Z,100432.72
2023-01-13T00:11:24.733Z,100431.47
2023-01-13T00:13:52.227Z,100441.94
2023-01-13T00:16:20.138Z,100436.56
2023-01-13T00:18:47.572Z,100431.25
2023-01-13T00:21:17.769Z,100435.97
2023-01-13T00:23:45.059Z,100428.53
2023-01-13T00:26:17.522Z,100428.59
2023-01-13T00:28:44.268Z,100430.56
2023-01-13T00:31:14.797Z,100431.88
2023-01-13T00:33:41.775Z,100433.81
2023-01-13T00:36:10.822Z,100441.22
2023-01-13T00:38:39.194Z,100442.53
2023-01-13T00:41:12.041Z,100456.91
2023-01-13T00:43:39.791Z,100442.78
2023-01-13T00:46:12.552Z,100442.38
2023-01-13T00:48:40.056Z,100440.94
2023-01-13T00:51:10.891Z,100427.63
2023-01-13T00:53:45.856Z,100423.03
2023-01-13T00:56:16.662Z,100417.13
2023-01-13T00:58:44.489Z,100409.63
2023-01-13T01:01:14.778Z,100406.88
2023-01-13T01:03:41.960Z,100399.03
2023-01-13T01:06:13.151Z,100397.00
2023-01-13T01:08:42.468Z,100403.16
2023-01-13T01:11:18.448Z,100406.56
2023-01-13T01:13:45.293Z,100399.66
2023-01-13T01:16:17.733Z,100398.69
2023-01-13T01:18:47.031Z,100392.41
2023-01-13T01:21:14.186Z,100410.16
2023-01-13T01:23:44.273Z,100392.06
2023-01-13T01:26:17.229Z,100390.66
2023-01-13T01:28:44.523Z,100392.88
2023-01-13T01:31:16.550Z,100396.94
2023-01-13T01:33:43.235Z,100393.84
2023-01-13T01:36:12.798Z,100388.53
2023-01-13T01:38:41.775Z,100378.91
2023-01-13T01:41:14.560Z,100394.00
2023-01-13T01:44:04.081Z,100405.84
2023-01-13T01:46:33.553Z,100398.50
2023-01-13T01:49:07.229Z,100405.06
2023-01-13T01:51:40.200Z,100415.28
2023-01-13T01:54:11.983Z,100413.34
2023-01-13T01:56:42.947Z,100407.69
2023-01-13T01:59:09.788Z,100417.41
2023-01-13T02:01:42.583Z,100413.09
2023-01-13T02:04:15.579Z,100421.75
2023-01-13T02:06:46.715Z,100408.94
2023-01-13T02:09:14.658Z,100393.59
2023-01-13T02:11:59.775Z,100412.03
2023-01-13T02:14:33.649Z,100403.09
2023-01-13T02:17:30.778Z,100402.84
2023-01-13T02:20:16.486Z,100406.63
2023-01-13T02:23:30.665Z,100403.28
2023-01-13T02:26:26.261Z,100399.31
2023-01-13T02:29:57.940Z,100388.09
2023-01-13T02:33:03.212Z,100383.16
2023-01-13T02:35:50.689Z,100383.34
2023-01-13T02:38:23.460Z,100381.38
2023-01-13T02:41:37.345Z,100371.16
2023-01-13T02:44:08.283Z,100361.28
2023-01-13T02:46:42.935Z,100355.47
2023-01-13T02:49:15.196Z,100358.19
2023-01-13T02:51:45.987Z,100366.50
2023-01-13T02:54:26.614Z,100363.28
2023-01-13T02:56:56.154Z,100364.53
2023-01-13T02:59:28.321Z,100357.66
2023-01-13T03:01:57.841Z,100365.50
2023-01-13T03:04:48.812Z,100361.66
2023-01-13T03:07:26.433Z,100356.53
2023-01-13T03:10:03.339Z,100357.13
2023-01-13T03:12:54.792Z,100355.56
2023-01-13T03:15:24.608Z,100345.91
2023-01-13T03:18:05.516Z,100348.66
2023-01-13T03:20:37.278Z,100343.91
2023-01-13T03:23:16.608Z,100358.19
2023-01-13T03:25:58.855Z,100351.66
2023-01-13T03:28:44.653Z,100353.88
2023-01-13T03:31:17.319Z,100350.09
2023-01-13T03:33:55.412Z,100346.72
2023-01-13T03:36:29.420Z,100358.03
2023-01-13T03:39:09.981Z,100358.19
2023-01-13T03:41:49.668Z,100357.75
2023-01-13T03:44:24.190Z,100368.97
2023-01-13T03:46:59.719Z,100368.78
2023-01-13T03:49:32.505Z,100371.16
2023-01-13T03:52:05.765Z,100360.94
2023-01-13T03:54:36.895Z,100356.41
2023-01-13T03:57:10.683Z,100352.47
2023-01-13T03:59:45.807Z,100355.56
2023-01-13T04:02:36.413Z,100356.25
2023-01-13T04:05:08.864Z,100354.84
2023-01-13T04:08:17.585Z,100345.31
2023-01-13T04:11:12.614Z,100354.94
2023-01-13T04:13:44.578Z,100343.72
2023-01-13T04:16:15.589Z,100339.91
2023-01-13T04:18:42.579Z,100353.41
2023-01-13T04:21:10.335Z,100359.16
2023-01-13T04:23:37.440Z,100354.06
2023-01-13T04:26:03.987Z,100368.50
2023-01-13T04:28:35.527Z,100365.66
2023-01-13T04:31:07.065Z,100373.50
2023-01-13T04:33:34.064Z,100363.47
2023-01-13T04:36:02.211Z,100372.72
2023-01-13T04:38:33.015Z,100352.06
2023-01-13T04:41:02.355Z,100368.06
2023-01-13T04:43:29.430Z,100362.16
2023-01-13T04:45:55.983Z,100367.59
2023-01-13T04:48:22.953Z,100354.81
2023-01-13T04:50:49.767Z,100354.88
2023-01-13T04:53:16.840Z,100348.38
2023-01-13T04:55:44.587Z,100355.25
2023-01-13T04:58:11.945Z,100341.22
2023-01-13T05:00:38.732Z,100348.88
2023-01-13T05:03:05.386Z,100352.41
2023-01-13T05:05:32.710Z,100354.78
2023-01-13T05:07:59.481Z,100351.25
2023-01-13T05:10:26.491Z,100354.88
2023-01-13T05:13:16.756Z,100346.25
2023-01-13T05:16:01.985Z,100334.69
2023-01-13T05:18:30.871Z,100345.72
2023-01-13T05:20:57.752Z,100336.19
2023-01-13T05:23:50.484Z,100335.66
2023-01-13T05:26:17.421Z,100347.06
2023-01-13T05:28:43.973Z,100340.19
2023-01-13T05:31:12.415Z,100334.59
2023-01-13T05:33:38.990Z,100335.75
2023-01-13T05:36:06.422Z,100334.34
2023-01-13T05:38:33.264Z,100336.56
2023-01-13T05:41:21.656Z,100332.50
2023-01-13T05:43:51.480Z,100337.09
2023-01-13T05:46:20.812Z,100347.22
2023-01-13T05:48:52.777Z,100356.91
2023-01-13T05:51:26.330Z,100355.94
2023-01-13T05:53:53.450Z,100344.84
2023-01-13T05:56:29.284Z,100359.56
2023-01-13T05:58:59.844Z,100355.44
2023-01-13T06:01:27.159Z,100351.25
2023-01-13T06:03:53.742Z,100357.06
2023-01-13T06:06:20.433Z,100343.66
2023-01-13T06:08:46.985Z,100337.13
2023-01-13T06:11:14.131Z,100344.38
2023-01-13T06:13:41.083Z,100342.50
2023-01-13T06:16:07.928Z,100338.19
2023-01-13T06:18:34.882Z,100354.13
2023-01-13T06:21:02.809Z,100353.66
2023-01-13T06:23:34.993Z,100356.22
2023-01-13T06:26:20.943Z,100362.78
2023-01-13T06:28:47.677Z,100362.78
2023-01-13T06:31:14.222Z,100360.31
2023-01-13T06:33:49.347Z,100366.06
2023-01-13T06:36:22.588Z,100359.63
2023-01-13T06:38:55.155Z,100362.03
2023-01-13T06:41:42.191Z,100368.34
2023-01-13T06:44:09.048Z,100372.53
2023-01-13T06:46:35.788Z,100376.66
2023-01-13T06:49:04.209Z,100372.63
2023-01-13T06:51:30.903Z,100383.28
2023-01-13T06:54:00.414Z,100394.47
2023-01-13T06:56:31.317Z,100390.00
2023-01-13T06:59:01.070Z,100393.88
2023-01-13T07:01:28.372Z,100399.59
2023-01-13T07:03:58.074Z,100401.19
2023-01-13T07:06:25.102Z,100381.50
2023-01-13T07:08:53.347Z,100387.59
2023-01-13T07:11:20.639Z,100396.06
2023-01-13T07:14:07.472Z,100406.94
2023-01-13T07:16:35.129Z,100408.53
2023-01-13T07:19:02.277Z,100396.34
2023-01-13T07:21:29.580Z,100399.88
2023-01-13T07:23:56.591Z,100399.88
2023-01-13T07:26:23.176Z,100391.69
2023-01-13T07:28:50.017Z,100381.63
2023-01-13T07:31:21.160Z,100395.41
2023-01-13T07:33:48.282Z,100395.41
2023-01-13T07:36:18.125Z,100401.91
2023-01-13T07:38:52.750Z,100404.94
2023-01-13T07:41:40.179Z,100410.31
2023-01-13T07:44:07.630Z,100397.34
2023-01-13T07:46:37.407Z,100403.25
2023-01-13T07:49:05.005Z,100403.72
2023-01-13T07:51:35.966Z,100402.56
2023-01-13T07:54:04.176Z,100400.47
2023-01-13T07:56:30.827Z,100405.13
2023-01-13T07:58:59.443Z,100419.50
2023-01-13T08:01:28.048Z,100409.91
2023-01-13T08:03:56.218Z,100415.97
2023-01-13T08:06:24.302Z,100412.47
2023-01-13T08:08:51.250Z,100417.56
2023-01-13T08:11:19.837Z,100414.22
2023-01-13T08:13:51.382Z,100411.13
2023-01-13T08:16:17.992Z,100402.31
2023-01-13T08:18:47.616Z,100413.16
2023-01-13T08:21:17.027Z,100421.09
2023-01-13T08:23:45.481Z,100420.78
2023-01-13T08:26:17.668Z,100421.75
2023-01-13T08:28:45.604Z,100430.03
2023-01-13T08:31:16.548Z,100436.53
2023-01-13T08:33:43.462Z,100438.31
2023-01-13T08:36:12.669Z,100439.91
2023-01-13T08:38:40.390Z,100449.63
2023-01-13T08:41:16.629Z,100445.47
2023-01-13T08:43:43.389Z,100449.97
2023-01-13T08:46:13.130Z,100456.75
2023-01-13T08:48:42.327Z,100456.66
2023-01-13T08:51:09.695Z,100457.03
2023-01-13T08:53:40.763Z,100463.25
2023-01-13T08:56:11.626Z,100465.41
2023-01-13T08:58:39.035Z,100472.00
2023-01-13T09:01:06.931Z,100461.31
2023-01-13T09:03:33.733Z,100480.19
2023-01-13T09:06:01.886Z,100483.44
2023-01-13T09:08:34.098Z,100485.53
2023-01-13T09:11:00.754Z,100498.03
2023-01-13T09:13:27.711Z,100494.69
2023-01-13T09:15:59.428Z,100487.19
2023-01-13T09:18:26.929Z,100487.97
2023-01-13T09:20:53.869Z,100500.91
2023-01-13T09:23:20.416Z,100510.34
2023-01-13T09:25:49.308Z,100510.34
2023-01-13T09:28:17.041Z,100526.66
2023-01-13T09:30:44.203Z,100516.63
2023-01-13T09:33:30.098Z,100509.28
2023-01-13T09:36:01.364Z,100510.13
2023-01-13T09:38:28.029Z,100520.69
2023-01-13T09:40:56.182Z,100519.88
2023-01-13T09:43:49.458Z,100537.47
2023-01-13T09:46:46.837Z,100535.88
2023-01-13T09:49:47.597Z,100533.94
2023-01-13T09:52:26.548Z,100543.66
2023-01-13T09:55:00.951Z,100550.84
2023-01-13T09:57:30.545Z,100546.00
2023-01-13T09:59:58.851Z,100544.84
2023-01-13T10:02:52.504Z,100538.63
2023-01-13T10:05:34.736Z,100540.22
2023-01-13T10:08:21.846Z,100541.28
2023-01-13T10:10:51.432Z,100539.16
2023-01-13T10:13:29.984Z,100545.38
2023-01-13T10:16:02.706Z,100546.81
2023-01-13T10:18:51.048Z,100555.78
2023-01-13T10:21:37.930Z,100545.91
2023-01-13T10:24:22.410Z,100566.69
2023-01-13T10:27:13.413Z,100560.59
2023-01-13T10:29:40.327Z,100578.34
2023-01-13T10:32:07.174Z,100573.69
2023-01-13T10:34:48.667Z,100572.03
2023-01-13T10:37:24.927Z,100575.84
2023-01-13T10:40:00.901Z,100584.00
2023-01-13T10:42:28.053Z,100589.91
2023-01-13T10:45:00.721Z,100595.00
2023-01-13T10:47:36.106Z,100597.75
2023-01-13T10:50:11.754Z,100605.44
2023-01-13T10:52:43.058Z,100591.19
2023-01-13T10:55:37.055Z,100610.25
2023-01-13T10:58:20.957Z,100600.16
2023-01-13T11:00:49.937Z,100606.44
2023-01-13T11:03:20.565Z,100610.59
2023-01-13T11:06:01.131Z,100615.19
2023-01-13T11:08:37.556Z,100619.03
2023-01-13T11:11:24.149Z,100608.28
2023-01-13T11:14:12.756Z,100611.28
2023-01-13T11:16:52.869Z,100625.16
2023-01-13T11:19:23.343Z,100604.34
2023-01-13T11:21:54.678Z,100618.53
2023-01-13T11:24:36.792Z,100616.63
2023-01-13T11:27:18.491Z,100622.97
2023-01-13T11:30:14.204Z,100625.53
2023-01-13T11:33:10.049Z,100637.81
2023-01-13T11:35:44.716Z,100627.44
2023-01-13T11:38:28.838Z,100623.53
2023-01-13T11:41:02.509Z,100640.66
2023-01-13T11:43:53.392Z,100635.97
2023-01-13T11:46:25.032Z,100636.25
2023-01-13T11:48:52.335Z,100650.31
2023-01-13T11:51:25.052Z,100648.03
2023-01-13T11:53:52.959Z,100652.00
2023-01-13T11:56:55.169Z,100649.88
2023-01-13T11:59:56.027Z,100656.28
2023-01-13T12:02:31.293Z,100665.34
2023-01-13T12:05:24.106Z,100660.09
2023-01-13T12:08:15.745Z,100658.31
2023-01-13T12:11:19.254Z,100654.97
2023-01-13T12:14:18.229Z,100669.19
2023-01-13T12:16:49.687Z,100667.41
2023-01-13T12:19:28.422Z,100682.44
2023-01-13T12:22:16.054Z,100687.56
2023-01-13T12:25:20.416Z,100686.94
2023-01-13T12:28:03.324Z,100687.09
2023-01-13T12:30:54.869Z,100694.19
2023-01-13T12:33:43.224Z,100685.06
2023-01-13T12:36:29.547Z,100694.97
2023-01-13T12:39:06.614Z,100703.47
2023-01-13T12:42:18.536Z,100695.41
2023-01-13T12:45:10.309Z,100700.81
2023-01-13T12:47:44.681Z,100721.94
2023-01-13T12:50:36.276Z,100700.47
2023-01-13T12:53:35.063Z,100712.97
2023-01-13T12:56:22.951Z,100704.72
2023-01-13T12:58:49.606Z,100715.25
2023-01-13T13:01:18.426Z,100719.06
2023-01-13T13:04:08.243Z,100717.28
2023-01-13T13:06:37.725Z,100727.38
2023-01-13T13:09:30.959Z,100735.69
2023-01-13T13:12:03.710Z,100737.28
2023-01-13T13:14:39.429Z,100708.91
2023-01-13T13:17:41.842Z,100731.38
2023-01-13T13:20:50.705Z,100732.34
2023-01-13T13:23:57.836Z,100747.88
2023-01-13T13:26:46.344Z,100752.06
2023-01-13T13:29:25.181Z,100758.94
2023-01-13T13:32:13.441Z,100768.22
2023-01-13T13:35:04.228Z,100777.31
2023-01-13T13:38:09.208Z,100764.19
2023-01-13T13:41:00.281Z,100750.84
2023-01-13T13:43:47.273Z,100770.38
2023-01-13T13:46:47.144Z,100761.53
2023-01-13T13:49:19.944Z,100771.00
2023-01-13T13:51:58.374Z,100790.69
2023-01-13T13:54:25.322Z,100777.09
2023-01-13T13:56:56.607Z,100793.44
2023-01-13T13:59:26.766Z,100801.66
2023-01-13T14:02:17.378Z,100811.28
2023-01-13T14:04:44.510Z,100820.72
2023-01-13T14:07:22.222Z,100814.66
2023-01-13T14:09:54.343Z,100834.38
2023-01-13T14:12:24.944Z,100834.53
2023-01-13T14:14:54.161Z,100837.88
2023-01-13T14:17:31.648Z,100839.66
2023-01-13T14:20:03.009Z,100852.63
2023-01-13T14:22:30.431Z,100856.34
2023-01-13T14:24:58.149Z,100866.75
2023-01-13T14:27:29.754Z,100861.19
2023-01-13T14:29:59.371Z,100886.19
2023-01-13T14:32:37.989Z,100883.63
2023-01-13T14:35:08.301Z,100884.78
2023-01-13T14:37:35.446Z,100883.00
2023-01-13T14:40:02.710Z,100886.38
2023-01-13T14:42:31.540Z,100882.03
2023-01-13T14:45:01.350Z,100893.44
2023-01-13T14:47:32.355Z,100901.13
2023-01-13T14:50:11.224Z,100915.69
2023-01-13T14:52:48.904Z,100919.38
2023-01-13T14:55:41.654Z,100919.28
2023-01-13T14:58:31.466Z,100917.03
2023-01-13T15:01:36.332Z,100930.63
2023-01-13T15:04:24.709Z,100939.13
2023-01-13T15:06:55.786Z,100941.53
2023-01-13T15:09:27.301Z,100962.66
2023-01-13T15:11:54.735Z,100956.72
2023-01-13T15:14:31.728Z,100956.91
2023-01-13T15:16:59.199Z,100963.94
2023-01-13T15:19:25.782Z,100945.22
2023-01-13T15:21:53.616Z,100968.28
2023-01-13T15:24:20.067Z,100973.91
2023-01-13T15:26:47.274Z,100979.03
2023-01-13T15:29:17.351Z,100984.50
2023-01-13T15:31:46.906Z,100979.19
2023-01-13T15:34:17.326Z,100987.84
2023-01-13T15:36:43.865Z,100996.16
2023-01-13T15:39:13.322Z,100999.06
2023-01-13T15:41:58.922Z,101015.41
2023-01-13T15:44:44.382Z,101018.91
2023-01-13T15:47:11.044Z,101036.88
2023-01-13T15:49:44.239Z,101033.66
2023-01-13T15:52:29.220Z,101027.94
2023-01-13T15:54:58.291Z,101033.03
2023-01-13T15:57:30.859Z,101050.19
2023-01-13T16:00:13.597Z,101042.31
2023-01-13T16:02:40.924Z,101048.91
2023-01-13T16:05:08.296Z,101059.00
2023-01-13T16:07:35.029Z,101053.72
2023-01-13T16:10:03.856Z,101055.47
2023-01-13T16:12:31.220Z,101062.38
2023-01-13T16:14:58.296Z,101061.22
2023-01-13T16:17:30.092Z,101067.50
2023-01-13T16:19:57.616Z,101071.16
2023-01-13T16:22:24.874Z,101073.41
2023-01-13T16:24:51.940Z,101075.16
2023-01-13T16:27:23.768Z,101086.22
2023-01-13T16:29:52.140Z,101090.38
2023-01-13T16:32:22.039Z,101086.34
2023-01-13T16:34:49.515Z,101084.75
2023-01-13T16:37:26.832Z,101088.28
2023-01-13T16:39:55.996Z,101109.59
2023-01-13T16:42:25.395Z,101099.16
2023-01-13T16:44:53.177Z,101095.16
2023-01-13T16:47:20.144Z,101095.97
2023-01-13T16:49:47.290Z,101096.13
2023-01-13T16:52:14.330Z,101115.94
2023-01-13T16:54:41.122Z,101116.91
2023-01-13T16:57:11.188Z,101140.78
2023-01-13T16:59:38.059Z,101153.53
2023-01-13T17:02:14.179Z,101133.34
2023-01-13T17:04:41.359Z,101141.47
2023-01-13T17:07:08.539Z,101135.53
2023-01-13T17:09:35.616Z,101142.84
2023-01-13T17:12:05.913Z,101139.78
2023-01-13T17:14:32.630Z,101144.22
2023-01-13T17:16:59.929Z,101155.84
2023-01-13T17:19:27.270Z,101153.72
2023-01-13T17:21:53.928Z,101163.09
2023-01-13T17:24:21.024Z,101164.50
2023-01-13T17:26:52.742Z,101175.97
2023-01-13T17:29:22.401Z,101184.09
2023-01-13T17:31:50.987Z,101191.00
2023-01-13T17:34:20.916Z,101190.28
2023-01-13T17:36:48.600Z,101184.47
2023-01-13T17:39:17.667Z,101182.09
2023-01-13T17:41:47.600Z,101188.28
2023-01-13T17:44:16.042Z,101194.00
2023-01-13T17:46:43.341Z,101193.34
2023-01-13T17:49:11.767Z,101202.09
2023-01-13T17:51:38.407Z,101201.78
2023-01-13T17:54:06.877Z,101197.41
2023-01-13T17:56:33.524Z,101201.66
2023-01-13T17:59:00.119Z,101205.00
2023-01-13T18:01:30.879Z,101203.25
2023-01-13T18:03:57.930Z,101207.69
2023-01-13T18:06:24.976Z,101210.41
2023-01-13T18:08:52.428Z,101214.19
2023-01-13T18:11:21.326Z,101208.72
2023-01-13T18:13:55.255Z,101199.41
2023-01-13T18:16:24.183Z,101200.00
2023-01-13T18:18:52.293Z,101210.69
2023-01-13T18:21:43.482Z,101209.09
2023-01-13T18:24:33.636Z,101211.50
2023-01-13T18:27:19.501Z,101225.44
2023-01-13T18:29:47.386Z,101229.59
2023-01-13T18:32:14.800Z,101234.19
2023-01-13T18:34:41.704Z,101228.13
2023-01-13T18:37:10.750Z,101237.13
2023-01-13T18:39:40.256Z,101239.31
2023-01-13T18:42:26.956Z,101260.25
2023-01-13T18:44:56.133Z,101262.88
2023-01-13T18:47:29.037Z,101262.28
2023-01-13T18:49:57.318Z,101271.13
2023-01-13T18:52:26.540Z,101254.03
2023-01-13T18:54:53.739Z,101256.50
2023-01-13T18:57:22.591Z,101261.97
2023-01-13T18:59:49.227Z,101270.00
2023-01-13T19:02:21.764Z,101269.06
2023-01-13T19:04:48.459Z,101273.09
2023-01-13T19:07:23.934Z,101277.72
2023-01-13T19:09:50.532Z,101291.81
2023-01-13T19:12:26.012Z,101284.31
2023-01-13T19:14:55.434Z,101294.38
2023-01-13T19:17:24.563Z,101299.50
2023-01-13T19:19:54.032Z,101292.63
2023-01-13T19:22:25.602Z,101303.97
2023-01-13T19:24:52.673Z,101304.13
2023-01-13T19:27:20.369Z,101307.97
2023-01-13T19:29:52.821Z,101308.63
2023-01-13T19:32:24.438Z,101309.28
2023-01-13T19:34:51.360Z,101314.59
2023-01-13T19:37:19.002Z,101312.03
2023-01-13T19:39:49.222Z,101322.56
2023-01-13T19:42:34.416Z,101330.38
2023-01-13T19:45:20.385Z,101333.75
2023-01-13T19:47:47.363Z,101330.38
2023-01-13T19:50:16.129Z,101347.69
2023-01-13T19:52:42.793Z,101345.00
2023-01-13T19:55:12.592Z,101348.03
2023-01-13T19:57:40.303Z,101351.09
2023-01-13T20:00:09.435Z,101359.75
2023-01-13T20:02:36.994Z,101362.81
2023-01-13T20:05:09.288Z,101364.09
2023-01-13T20:07:37.193Z,101355.84
2023-01-13T20:10:04.627Z,101371.69
2023-01-13T20:12:31.268Z,101364.97
2023-01-13T20:14:58.875Z,101370.25
2023-01-13T20:17:29.695Z,101376.28
2023-01-13T20:19:59.052Z,101368.97
2023-01-13T20:22:28.878Z,101366.56
2023-01-13T20:24:55.790Z,101370.38
2023-01-13T20:27:24.031Z,101367.19
2023-01-13T20:29:51.345Z,101377.25
2023-01-13T20:32:18.161Z,101376.28
2023-01-13T20:34:44.809Z,101375.81
2023-01-13T20:37:11.511Z,101375.28
2023-01-13T20:39:40.172Z,101385.66
2023-01-13T20:42:26.167Z,101395.75
2023-01-13T20:44:53.263Z,101404.81
2023-01-13T20:47:22.132Z,101413.94
2023-01-13T20:49:50.208Z,101410.00
2023-01-13T20:52:19.510Z,101421.69
2023-01-13T20:54:49.109Z,101417.78
2023-01-13T20:57:15.682Z,101416.19
2023-01-13T20:59:42.930Z,101428.03
2023-01-13T21:02:15.197Z,101426.22
2023-01-13T21:04:42.372Z,101433.94
2023-01-13T21:07:09.408Z,101429.25
2023-01-13T21:09:38.808Z,101439.91
2023-01-13T21:12:26.949Z,101434.00
2023-01-13T21:15:11.934Z,101443.31
2023-01-13T21:17:57.498Z,101447.88
2023-01-13T21:20:24.021Z,101447.34
2023-01-13T21:22:53.382Z,101447.34
2023-01-13T21:25:20.411Z,101447.72
2023-01-13T21:27:48.078Z,101456.88
2023-01-13T21:30:17.014Z,101445.69
2023-01-13T21:32:45.145Z,101440.59
2023-01-13T21:35:14.463Z,101441.38
2023-01-13T21:37:42.874Z,101444.22
2023-01-13T21:40:15.128Z,101450.00
2023-01-13T21:43:00.916Z,101450.97
2023-01-13T21:45:49.479Z,101456.06
2023-01-13T21:48:17.214Z,101458.19
2023-01-13T21:50:46.443Z,101468.28
2023-01-13T21:53:13.412Z,101456.16
2023-01-13T21:55:40.422Z,101466.75
2023-01-13T21:58:14.637Z,101473.19
2023-01-13T22:00:43.167Z,101473.31
2023-01-13T22:03:12.699Z,101469.81
2023-01-13T22:05:40.079Z,101467.53
2023-01-13T22:08:07.749Z,101480.31
2023-01-13T22:10:35.271Z,101484.38
2023-01-13T22:13:24.042Z,101492.03
2023-01-13T22:15:51.272Z,101497.94
2023-01-13T22:18:20.738Z,101502.63
2023-01-13T22:20:49.256Z,101501.00
2023-01-13T22:23:17.647Z,101506.78
2023-01-13T22:25:44.125Z,101505.41
2023-01-13T22:28:14.150Z,101515.22
2023-01-13T22:30:40.918Z,101512.72
2023-01-13T22:33:10.341Z,101508.13
2023-01-13T22:35:38.769Z,101508.78
2023-01-13T22:38:06.100Z,101507.34
2023-01-13T22:40:32.649Z,101513.69
2023-01-13T22:42:59.349Z,101515.59
2023-01-13T22:45:27.466Z,101517.63
2023-01-13T22:47:54.853Z,101516.00
2023-01-13T22:50:22.809Z,101525.28
2023-01-13T22:52:49.798Z,101519.38
2023-01-13T22:55:16.431Z,101510.22
2023-01-13T22:57:48.181Z,101517.66
2023-01-13T23:00:19.227Z,101520.38
2023-01-13T23:02:46.672Z,101517.03
2023-01-13T23:05:13.901Z,101525.50
2023-01-13T23:07:43.004Z,101526.56
2023-01-13T23:10:10.530Z,101525.91
2023-01-13T23:12:38.628Z,101531.19
2023-01-13T23:15:05.680Z,101529.28
2023-01-13T23:17:35.184Z,101526.31
2023-01-13T23:20:02.238Z,101526.44
2023-01-13T23:22:28.846Z,101524.81
2023-01-13T23:24:56.059Z,101525.66
2023-01-13T23:27:22.584Z,101529.81
2023-01-13T23:29:49.633Z,101516.72
2023-01-13T23:32:17.524Z,101518.63
2023-01-13T23:34:47.693Z,101505.19
2023-01-13T23:37:15.672Z,101503.56
2023-01-13T23:39:43.158Z,101502.63
2023-01-13T23:42:09.706Z,101501.53
2023-01-13T23:44:36.908Z,101505.41
2023-01-13T23:47:08.492Z,101504.31
2023-01-13T23:49:39.204Z,101503.50
2023-01-13T23:52:10.004Z,101513.72
2023-01-13T23:54:39.721Z,101509.25
2023-01-13T23:57:06.982Z,101507.09
2023-01-13T23:59:33.578Z,101513.03
